Terminal Aerodrome Forecast
Issued by NWS Pocatello, ID

Home | Current Version | Previous Version | Text Only | Print | Product List | Glossary On
Versions: 1 2 3 4 5 6 7 8 9 10 11 12 13 14 15
818
FTUS45 KPIH 251231 AAA
TAFBYI
TAF AMD
KBYI 251231Z 2513/2612 27015G25KT P6SM VCSH BKN015 OVC100
     FM251900 28015G25KT P6SM FEW025 SCT100
     FM260300 23011KT P6SM SCT070 SCT120=

USA.gov is the U.S. government's official web portal to all federal, state and local government web resources and services.